Aeroporto :
LOGIN :

Iscrizione | Disclaimer

   EN    FR    IT 

 










Sommario :    VFR   VFR Marginale   IFR   IFR Intensivo   IFR Molto Intensivo
Visibilità : 
Base nubi : 
>= 8 km
>= 3000ft
5 / 8 km
1000 / 3000 ft
1500m / 5 km
500 / 1000 ft
800 / 1500m
200 / 500 ft
< 800m
< 200 ft
Simboli :   Temporali  Nebbia  Neve Forte  Precipitazioni Forti  Vento > 20 kt
SIGMETs :   Varie  Temporali  Ghiacco  Turbolenza  Onda orograficha  Ceneri Vulcaniche






- Altitudine del aeroporto : 183 ft


LIBA - Amendola Foggia

ULTIMO METAR :
  • 301855Z 24002KT 8000 NSC 10/09 Q1012 RMK BKN SCT100 BKN180 VIS MIN 8000 WIND THR11 25002KT WIND THR29 /////KT BLU

METARs OBSOLETI :
  • 301755Z VRB01KT 8000 NSC 11/10 Q1011 RMK BKN SCT130 BKN180 VIS MIN 8000 WIND THR11 VRB01KT WIND THR29 /////KT BLU
  • 301655Z 10004KT 8000 NSC 13/11 Q1011 RMK BKN SCT130 BKN180 VIS MIN 8000 WIND THR11 10005KT WIND THR29 /////KT BLU

TAF TAF LIBA
Valido dal 30 a 18 ore il 31 a 03 ore UTC


301700Z 3018/3103 09008KT 7000 FEW030
BECMG 3020/3022 30006KT 5000 BR SCT020



MetMap, La meteo Aeronautica in un colpo d'occhio ! - Copyright ORBIFLY Dicembre 2007 - Disclaimer

ORBIFLY MET'MAP TEAM :

Programmazione e sviluppo : Alexandra Zaïnal
Concezione : Baudouin d'Aumeries
Aiuto per la programmazione : Marc-Olivier Méhu
Supporto tecnico e logistico : Manuel Goepfert
Aiuto per la traduzione : Arnaldo La Scala

Contatto : metmap@orbifly.com




FONTI E CREDITI :

   NOAA